Flugplatz Dessau

Für EDAD sind keine METAR/TAF Berichte vorhanden.
Es werden die Flugwettermeldungen vom Flugplatz Leipzig Halle in 45 km Entfernung angezeigt.

Bericht für EDDP

vom 07.08. um 17:20 UTC

variable Windrichtung mit 2 kt

Sichtweite 10 km oder mehr

gute Sicht, keine Wolken < 5000 ft, keine CB, keine Wettererscheinungen (CAVOK)

Temperatur 32.0°C

Taupunkt 14.0°C

Luftfeuchtigkeit 34%

Luftdruck 1020 hPa

keine wesentliche Wetteränderung innerhalb den nächsten 2 Stunden zu erwarten

EDDP 071720Z VRB02KT CAVOK 32/14 Q1020 NOSIG

Prognose für EDDP

vom 07.08. um 17:00 UTC

Zwischen 18:00 UTC und 00:00 UTC

Wind 4 kt aus 80°

Sichtweite 10 km oder mehr

keine signifikanten Wettererscheinungen

keine Wolken


Am 08.08. zwischen 00:00 und 03:00 UTC übergehend zu

Wind 5 kt aus 150°

Sichtweite 10 km oder mehr

keine signifikanten Wettererscheinungen

keine Wolken


Am 08.08. zwischen 09:00 und 11:00 UTC übergehend zu

Wind 5 kt aus 50°

Sichtweite 10 km oder mehr

keine signifikanten Wettererscheinungen

keine Wolken

TAF EDDP 071700Z 0718/0818 08004KT CAVOK BECMG 0800/0803 15005KT BECMG 0809/0811 05005KT
Impressum